sensor_id;sensor_type;location;lat;lon;timestamp;P1;durP1;ratioP1;P2;durP2;ratioP2
17852;SDS011;9052;53.494;14.376;2023-09-19T00:00:05;3.43;;;3.13;;
17852;SDS011;9052;53.494;14.376;2023-09-19T00:02:38;6.03;;;3.33;;
17852;SDS011;9052;53.494;14.376;2023-09-19T00:05:05;9.53;;;2.80;;
17852;SDS011;9052;53.494;14.376;2023-09-19T00:07:32;4.67;;;3.17;;
17852;SDS011;9052;53.494;14.376;2023-09-19T00:10:01;3.27;;;2.60;;
17852;SDS011;9052;53.494;14.376;2023-09-19T00:12:29;6.70;;;4.00;;
17852;SDS011;9052;53.494;14.376;2023-09-19T00:14:56;4.17;;;2.93;;
17852;SDS011;9052;53.494;14.376;2023-09-19T00:17:27;13.00;;;3.17;;
17852;SDS011;9052;53.494;14.376;2023-09-19T00:19:55;6.10;;;3.17;;
17852;SDS011;9052;53.494;14.376;2023-09-19T00:22:22;3.77;;;2.97;;
17852;SDS011;9052;53.494;14.376;2023-09-19T00:24:51;8.80;;;3.97;;
17852;SDS011;9052;53.494;14.376;2023-09-19T00:27:18;5.13;;;3.17;;
17852;SDS011;9052;53.494;14.376;2023-09-19T00:29:45;7.47;;;3.07;;
17852;SDS011;9052;53.494;14.376;2023-09-19T00:32:12;4.93;;;3.13;;
17852;SDS011;9052;53.494;14.376;2023-09-19T00:34:40;3.10;;;2.90;;
17852;SDS011;9052;53.494;14.376;2023-09-19T00:37:07;4.77;;;3.50;;
17852;SDS011;9052;53.494;14.376;2023-09-19T00:39:36;11.07;;;3.90;;
17852;SDS011;9052;53.494;14.376;2023-09-19T00:42:03;6.70;;;2.77;;
17852;SDS011;9052;53.494;14.376;2023-09-19T00:44:30;8.00;;;3.43;;
17852;SDS011;9052;53.494;14.376;2023-09-19T00:46:59;3.20;;;2.83;;
17852;SDS011;9052;53.494;14.376;2023-09-19T00:49:27;5.10;;;2.80;;
17852;SDS011;9052;53.494;14.376;2023-09-19T00:51:56;8.57;;;2.83;;
17852;SDS011;9052;53.494;14.376;2023-09-19T00:54:22;3.30;;;3.07;;
17852;SDS011;9052;53.494;14.376;2023-09-19T00:56:49;7.23;;;3.37;;
17852;SDS011;9052;53.494;14.376;2023-09-19T00:59:16;4.83;;;3.23;;
17852;SDS011;9052;53.494;14.376;2023-09-19T01:01:42;4.53;;;2.77;;
17852;SDS011;9052;53.494;14.376;2023-09-19T01:04:11;7.63;;;3.10;;
17852;SDS011;9052;53.494;14.376;2023-09-19T01:06:37;5.20;;;2.77;;
17852;SDS011;9052;53.494;14.376;2023-09-19T01:09:06;6.97;;;2.87;;
17852;SDS011;9052;53.494;14.376;2023-09-19T01:11:33;13.40;;;3.60;;
17852;SDS011;9052;53.494;14.376;2023-09-19T01:14:07;3.93;;;2.70;;
17852;SDS011;9052;53.494;14.376;2023-09-19T01:16:42;6.23;;;2.33;;
17852;SDS011;9052;53.494;14.376;2023-09-19T01:19:18;4.00;;;2.67;;
17852;SDS011;9052;53.494;14.376;2023-09-19T01:21:57;10.07;;;3.40;;
17852;SDS011;9052;53.494;14.376;2023-09-19T01:24:45;6.90;;;3.50;;
17852;SDS011;9052;53.494;14.376;2023-09-19T01:27:25;4.40;;;3.00;;
17852;SDS011;9052;53.494;14.376;2023-09-19T01:30:10;3.03;;;2.60;;
17852;SDS011;9052;53.494;14.376;2023-09-19T01:32:37;6.53;;;3.57;;
17852;SDS011;9052;53.494;14.376;2023-09-19T01:35:06;4.90;;;2.40;;
17852;SDS011;9052;53.494;14.376;2023-09-19T01:37:38;11.87;;;2.97;;
17852;SDS011;9052;53.494;14.376;2023-09-19T01:40:08;8.83;;;3.47;;
17852;SDS011;9052;53.494;14.376;2023-09-19T01:42:43;4.43;;;3.40;;
17852;SDS011;9052;53.494;14.376;2023-09-19T01:45:16;7.43;;;3.80;;
17852;SDS011;9052;53.494;14.376;2023-09-19T01:47:52;12.20;;;3.20;;
17852;SDS011;9052;53.494;14.376;2023-09-19T01:50:24;2.93;;;2.70;;
17852;SDS011;9052;53.494;14.376;2023-09-19T01:52:57;2.63;;;2.40;;
17852;SDS011;9052;53.494;14.376;2023-09-19T01:55:29;8.40;;;3.10;;
17852;SDS011;9052;53.494;14.376;2023-09-19T01:58:00;4.27;;;2.90;;
17852;SDS011;9052;53.494;14.376;2023-09-19T02:00:31;10.13;;;4.50;;
17852;SDS011;9052;53.494;14.376;2023-09-19T02:02:59;7.10;;;3.87;;
17852;SDS011;9052;53.494;14.376;2023-09-19T02:05:26;6.47;;;3.40;;
17852;SDS011;9052;53.494;14.376;2023-09-19T02:07:53;6.77;;;3.37;;
17852;SDS011;9052;53.494;14.376;2023-09-19T02:10:20;4.17;;;3.43;;
17852;SDS011;9052;53.494;14.376;2023-09-19T02:12:47;5.37;;;3.23;;
17852;SDS011;9052;53.494;14.376;2023-09-19T02:15:14;5.83;;;3.63;;
17852;SDS011;9052;53.494;14.376;2023-09-19T02:17:43;4.87;;;3.00;;
17852;SDS011;9052;53.494;14.376;2023-09-19T02:20:11;3.30;;;3.00;;
17852;SDS011;9052;53.494;14.376;2023-09-19T02:22:40;4.33;;;2.90;;
17852;SDS011;9052;53.494;14.376;2023-09-19T02:25:07;5.00;;;3.10;;
17852;SDS011;9052;53.494;14.376;2023-09-19T02:27:34;5.27;;;3.07;;
17852;SDS011;9052;53.494;14.376;2023-09-19T02:30:00;8.70;;;3.43;;
17852;SDS011;9052;53.494;14.376;2023-09-19T02:32:29;7.60;;;3.77;;
17852;SDS011;9052;53.494;14.376;2023-09-19T02:34:57;7.03;;;3.50;;
17852;SDS011;9052;53.494;14.376;2023-09-19T02:37:24;8.57;;;3.60;;
17852;SDS011;9052;53.494;14.376;2023-09-19T02:39:51;6.10;;;3.07;;
17852;SDS011;9052;53.494;14.376;2023-09-19T02:42:17;4.63;;;3.23;;
17852;SDS011;9052;53.494;14.376;2023-09-19T02:44:44;4.03;;;2.90;;
17852;SDS011;9052;53.494;14.376;2023-09-19T02:47:12;4.50;;;3.23;;
17852;SDS011;9052;53.494;14.376;2023-09-19T02:49:40;6.13;;;3.90;;
17852;SDS011;9052;53.494;14.376;2023-09-19T02:52:08;8.33;;;3.30;;
17852;SDS011;9052;53.494;14.376;2023-09-19T02:54:36;5.03;;;4.43;;
17852;SDS011;9052;53.494;14.376;2023-09-19T02:57:03;7.00;;;3.17;;
17852;SDS011;9052;53.494;14.376;2023-09-19T02:59:31;6.30;;;3.20;;
17852;SDS011;9052;53.494;14.376;2023-09-19T03:01:58;7.93;;;3.20;;
17852;SDS011;9052;53.494;14.376;2023-09-19T03:04:25;5.67;;;3.80;;
17852;SDS011;9052;53.494;14.376;2023-09-19T03:06:53;7.13;;;3.70;;
17852;SDS011;9052;53.494;14.376;2023-09-19T03:09:25;5.43;;;3.97;;
17852;SDS011;9052;53.494;14.376;2023-09-19T03:11:51;6.33;;;3.50;;
17852;SDS011;9052;53.494;14.376;2023-09-19T03:14:19;16.50;;;4.53;;
17852;SDS011;9052;53.494;14.376;2023-09-19T03:16:46;6.77;;;3.43;;
17852;SDS011;9052;53.494;14.376;2023-09-19T03:19:17;4.33;;;3.27;;
17852;SDS011;9052;53.494;14.376;2023-09-19T03:21:45;9.83;;;3.60;;
17852;SDS011;9052;53.494;14.376;2023-09-19T03:24:15;13.43;;;3.90;;
17852;SDS011;9052;53.494;14.376;2023-09-19T03:26:44;17.63;;;4.53;;
17852;SDS011;9052;53.494;14.376;2023-09-19T03:29:11;6.13;;;3.80;;
17852;SDS011;9052;53.494;14.376;2023-09-19T03:31:39;6.70;;;3.90;;
17852;SDS011;9052;53.494;14.376;2023-09-19T03:34:05;5.70;;;3.53;;
17852;SDS011;9052;53.494;14.376;2023-09-19T03:36:32;7.43;;;4.00;;
17852;SDS011;9052;53.494;14.376;2023-09-19T03:38:58;8.00;;;3.87;;
17852;SDS011;9052;53.494;14.376;2023-09-19T03:41:25;7.37;;;3.77;;
17852;SDS011;9052;53.494;14.376;2023-09-19T03:43:53;16.00;;;4.20;;
17852;SDS011;9052;53.494;14.376;2023-09-19T03:46:20;6.33;;;3.33;;
17852;SDS011;9052;53.494;14.376;2023-09-19T03:48:47;8.80;;;3.70;;
17852;SDS011;9052;53.494;14.376;2023-09-19T03:51:13;7.67;;;4.10;;
17852;SDS011;9052;53.494;14.376;2023-09-19T03:53:40;17.17;;;4.20;;
17852;SDS011;9052;53.494;14.376;2023-09-19T03:56:07;4.97;;;2.83;;
17852;SDS011;9052;53.494;14.376;2023-09-19T03:58:34;15.53;;;4.43;;
17852;SDS011;9052;53.494;14.376;2023-09-19T04:01:05;9.20;;;3.80;;
17852;SDS011;9052;53.494;14.376;2023-09-19T04:03:32;4.60;;;3.70;;
17852;SDS011;9052;53.494;14.376;2023-09-19T04:06:11;8.50;;;4.80;;
17852;SDS011;9052;53.494;14.376;2023-09-19T04:08:38;4.10;;;3.47;;
17852;SDS011;9052;53.494;14.376;2023-09-19T04:11:04;10.03;;;4.37;;
17852;SDS011;9052;53.494;14.376;2023-09-19T04:13:31;7.67;;;3.50;;
17852;SDS011;9052;53.494;14.376;2023-09-19T04:15:58;8.33;;;3.50;;
17852;SDS011;9052;53.494;14.376;2023-09-19T04:18:26;4.07;;;3.10;;
17852;SDS011;9052;53.494;14.376;2023-09-19T04:20:53;5.30;;;4.00;;
17852;SDS011;9052;53.494;14.376;2023-09-19T04:23:21;9.43;;;3.90;;
17852;SDS011;9052;53.494;14.376;2023-09-19T04:25:47;5.70;;;3.43;;
17852;SDS011;9052;53.494;14.376;2023-09-19T04:28:14;9.23;;;4.60;;
17852;SDS011;9052;53.494;14.376;2023-09-19T04:30:41;8.00;;;4.20;;
17852;SDS011;9052;53.494;14.376;2023-09-19T04:33:09;5.07;;;3.10;;
17852;SDS011;9052;53.494;14.376;2023-09-19T04:35:38;6.10;;;3.60;;
17852;SDS011;9052;53.494;14.376;2023-09-19T04:38:07;4.90;;;3.27;;
17852;SDS011;9052;53.494;14.376;2023-09-19T04:40:34;6.17;;;3.70;;
17852;SDS011;9052;53.494;14.376;2023-09-19T04:43:01;10.13;;;3.53;;
17852;SDS011;9052;53.494;14.376;2023-09-19T04:45:28;7.77;;;3.73;;
17852;SDS011;9052;53.494;14.376;2023-09-19T04:47:54;7.77;;;3.33;;
17852;SDS011;9052;53.494;14.376;2023-09-19T04:50:21;7.70;;;3.70;;
17852;SDS011;9052;53.494;14.376;2023-09-19T04:52:50;4.87;;;4.37;;
17852;SDS011;9052;53.494;14.376;2023-09-19T04:55:17;7.57;;;4.77;;
17852;SDS011;9052;53.494;14.376;2023-09-19T04:57:44;6.00;;;3.70;;
17852;SDS011;9052;53.494;14.376;2023-09-19T05:00:14;5.50;;;3.63;;
17852;SDS011;9052;53.494;14.376;2023-09-19T05:02:43;6.63;;;3.63;;
17852;SDS011;9052;53.494;14.376;2023-09-19T05:05:10;14.23;;;3.47;;
17852;SDS011;9052;53.494;14.376;2023-09-19T05:07:40;4.30;;;3.00;;
17852;SDS011;9052;53.494;14.376;2023-09-19T05:10:09;13.30;;;3.50;;
17852;SDS011;9052;53.494;14.376;2023-09-19T05:12:38;3.87;;;3.10;;
17852;SDS011;9052;53.494;14.376;2023-09-19T05:15:06;4.00;;;3.10;;
17852;SDS011;9052;53.494;14.376;2023-09-19T05:17:33;4.97;;;3.70;;
17852;SDS011;9052;53.494;14.376;2023-09-19T05:20:00;5.67;;;3.00;;
17852;SDS011;9052;53.494;14.376;2023-09-19T05:22:36;8.10;;;2.87;;
17852;SDS011;9052;53.494;14.376;2023-09-19T05:25:06;7.87;;;3.00;;
17852;SDS011;9052;53.494;14.376;2023-09-19T05:27:35;7.00;;;3.00;;
17852;SDS011;9052;53.494;14.376;2023-09-19T05:30:02;13.83;;;3.33;;
17852;SDS011;9052;53.494;14.376;2023-09-19T05:32:29;7.10;;;2.83;;
17852;SDS011;9052;53.494;14.376;2023-09-19T05:34:57;4.37;;;3.20;;
17852;SDS011;9052;53.494;14.376;2023-09-19T05:37:23;3.47;;;2.93;;
17852;SDS011;9052;53.494;14.376;2023-09-19T05:39:51;6.70;;;2.43;;
17852;SDS011;9052;53.494;14.376;2023-09-19T05:42:19;6.77;;;2.80;;
17852;SDS011;9052;53.494;14.376;2023-09-19T05:44:50;10.00;;;3.00;;
17852;SDS011;9052;53.494;14.376;2023-09-19T05:47:18;2.67;;;2.47;;
17852;SDS011;9052;53.494;14.376;2023-09-19T05:49:50;3.37;;;3.07;;
17852;SDS011;9052;53.494;14.376;2023-09-19T05:52:17;7.33;;;2.40;;
17852;SDS011;9052;53.494;14.376;2023-09-19T05:54:45;2.97;;;2.70;;
17852;SDS011;9052;53.494;14.376;2023-09-19T05:57:14;4.27;;;3.30;;
17852;SDS011;9052;53.494;14.376;2023-09-19T05:59:43;5.00;;;2.63;;
17852;SDS011;9052;53.494;14.376;2023-09-19T06:02:17;4.10;;;2.40;;
17852;SDS011;9052;53.494;14.376;2023-09-19T06:04:44;4.53;;;2.23;;
17852;SDS011;9052;53.494;14.376;2023-09-19T06:07:11;3.70;;;1.87;;
17852;SDS011;9052;53.494;14.376;2023-09-19T06:09:38;2.27;;;2.10;;
17852;SDS011;9052;53.494;14.376;2023-09-19T06:12:05;8.93;;;2.87;;
17852;SDS011;9052;53.494;14.376;2023-09-19T06:14:33;3.57;;;2.13;;
17852;SDS011;9052;53.494;14.376;2023-09-19T06:16:59;3.40;;;2.50;;
17852;SDS011;9052;53.494;14.376;2023-09-19T06:19:27;2.60;;;2.10;;
17852;SDS011;9052;53.494;14.376;2023-09-19T06:21:54;8.67;;;2.57;;
17852;SDS011;9052;53.494;14.376;2023-09-19T06:24:21;5.63;;;2.50;;
17852;SDS011;9052;53.494;14.376;2023-09-19T06:26:47;7.17;;;2.10;;
17852;SDS011;9052;53.494;14.376;2023-09-19T06:29:14;7.73;;;2.30;;
17852;SDS011;9052;53.494;14.376;2023-09-19T06:31:41;2.57;;;1.90;;
17852;SDS011;9052;53.494;14.376;2023-09-19T06:34:09;1.97;;;1.73;;
17852;SDS011;9052;53.494;14.376;2023-09-19T06:36:38;6.47;;;1.73;;
17852;SDS011;9052;53.494;14.376;2023-09-19T06:39:06;4.10;;;2.10;;
17852;SDS011;9052;53.494;14.376;2023-09-19T06:41:35;3.07;;;1.77;;
17852;SDS011;9052;53.494;14.376;2023-09-19T06:44:03;5.10;;;2.10;;
17852;SDS011;9052;53.494;14.376;2023-09-19T06:46:31;7.63;;;2.50;;
17852;SDS011;9052;53.494;14.376;2023-09-19T06:49:00;4.13;;;2.33;;
17852;SDS011;9052;53.494;14.376;2023-09-19T06:51:31;8.13;;;2.30;;
17852;SDS011;9052;53.494;14.376;2023-09-19T06:53:59;2.67;;;2.27;;
17852;SDS011;9052;53.494;14.376;2023-09-19T06:56:27;5.83;;;2.13;;
17852;SDS011;9052;53.494;14.376;2023-09-19T06:58:53;3.30;;;1.83;;
17852;SDS011;9052;53.494;14.376;2023-09-19T07:01:20;9.07;;;2.43;;
17852;SDS011;9052;53.494;14.376;2023-09-19T07:03:47;3.70;;;2.23;;
17852;SDS011;9052;53.494;14.376;2023-09-19T07:06:14;2.03;;;1.93;;
17852;SDS011;9052;53.494;14.376;2023-09-19T07:08:41;5.70;;;2.47;;
17852;SDS011;9052;53.494;14.376;2023-09-19T07:11:09;3.03;;;1.70;;
17852;SDS011;9052;53.494;14.376;2023-09-19T07:13:37;3.83;;;2.40;;
17852;SDS011;9052;53.494;14.376;2023-09-19T07:16:04;4.20;;;2.27;;
17852;SDS011;9052;53.494;14.376;2023-09-19T07:18:31;2.80;;;1.47;;
17852;SDS011;9052;53.494;14.376;2023-09-19T07:20:58;4.60;;;1.90;;
17852;SDS011;9052;53.494;14.376;2023-09-19T07:23:30;3.83;;;2.00;;
17852;SDS011;9052;53.494;14.376;2023-09-19T07:26:00;6.90;;;2.10;;
17852;SDS011;9052;53.494;14.376;2023-09-19T07:28:28;4.47;;;2.20;;
17852;SDS011;9052;53.494;14.376;2023-09-19T07:30:55;2.37;;;1.70;;
17852;SDS011;9052;53.494;14.376;2023-09-19T07:33:21;3.03;;;1.57;;
17852;SDS011;9052;53.494;14.376;2023-09-19T07:35:50;3.57;;;1.60;;
17852;SDS011;9052;53.494;14.376;2023-09-19T07:38:17;8.57;;;2.10;;
17852;SDS011;9052;53.494;14.376;2023-09-19T07:40:44;3.77;;;1.87;;
17852;SDS011;9052;53.494;14.376;2023-09-19T07:43:11;4.23;;;1.90;;
17852;SDS011;9052;53.494;14.376;2023-09-19T07:45:39;2.97;;;2.00;;
17852;SDS011;9052;53.494;14.376;2023-09-19T07:48:06;5.93;;;1.27;;
17852;SDS011;9052;53.494;14.376;2023-09-19T07:50:39;7.97;;;2.03;;
17852;SDS011;9052;53.494;14.376;2023-09-19T07:53:08;3.47;;;1.63;;
17852;SDS011;9052;53.494;14.376;2023-09-19T07:55:35;4.43;;;2.13;;
17852;SDS011;9052;53.494;14.376;2023-09-19T07:58:03;3.27;;;1.80;;
17852;SDS011;9052;53.494;14.376;2023-09-19T08:00:31;3.70;;;2.00;;
17852;SDS011;9052;53.494;14.376;2023-09-19T08:03:01;8.17;;;1.80;;
17852;SDS011;9052;53.494;14.376;2023-09-19T08:05:29;5.33;;;2.00;;
17852;SDS011;9052;53.494;14.376;2023-09-19T08:07:55;4.70;;;2.27;;
17852;SDS011;9052;53.494;14.376;2023-09-19T08:10:24;8.33;;;1.90;;
17852;SDS011;9052;53.494;14.376;2023-09-19T08:12:52;3.77;;;2.60;;
17852;SDS011;9052;53.494;14.376;2023-09-19T08:15:23;4.77;;;2.30;;
17852;SDS011;9052;53.494;14.376;2023-09-19T08:17:49;4.80;;;1.83;;
17852;SDS011;9052;53.494;14.376;2023-09-19T08:20:18;5.90;;;2.13;;
17852;SDS011;9052;53.494;14.376;2023-09-19T08:22:46;5.30;;;2.53;;
17852;SDS011;9052;53.494;14.376;2023-09-19T08:25:15;4.57;;;2.10;;
17852;SDS011;9052;53.494;14.376;2023-09-19T08:27:43;5.97;;;1.80;;
17852;SDS011;9052;53.494;14.376;2023-09-19T08:30:13;2.70;;;1.80;;
17852;SDS011;9052;53.494;14.376;2023-09-19T08:32:41;4.33;;;2.00;;
17852;SDS011;9052;53.494;14.376;2023-09-19T08:35:08;3.90;;;1.80;;
17852;SDS011;9052;53.494;14.376;2023-09-19T08:37:37;5.83;;;2.00;;
17852;SDS011;9052;53.494;14.376;2023-09-19T08:40:04;2.00;;;1.83;;
17852;SDS011;9052;53.494;14.376;2023-09-19T08:42:46;4.27;;;2.30;;
17852;SDS011;9052;53.494;14.376;2023-09-19T08:45:18;2.37;;;1.70;;
17852;SDS011;9052;53.494;14.376;2023-09-19T08:47:46;4.17;;;2.30;;
17852;SDS011;9052;53.494;14.376;2023-09-19T08:50:19;9.63;;;2.20;;
17852;SDS011;9052;53.494;14.376;2023-09-19T08:52:51;4.07;;;2.00;;
17852;SDS011;9052;53.494;14.376;2023-09-19T08:55:20;8.00;;;2.20;;
17852;SDS011;9052;53.494;14.376;2023-09-19T08:57:51;3.90;;;2.03;;
17852;SDS011;9052;53.494;14.376;2023-09-19T09:00:19;7.80;;;2.77;;
17852;SDS011;9052;53.494;14.376;2023-09-19T09:02:48;5.80;;;2.27;;
17852;SDS011;9052;53.494;14.376;2023-09-19T09:05:15;9.90;;;2.50;;
17852;SDS011;9052;53.494;14.376;2023-09-19T09:07:47;4.50;;;2.03;;
17852;SDS011;9052;53.494;14.376;2023-09-19T09:10:16;5.00;;;2.20;;
17852;SDS011;9052;53.494;14.376;2023-09-19T09:12:47;18.30;;;2.30;;
17852;SDS011;9052;53.494;14.376;2023-09-19T09:15:14;2.60;;;1.60;;
17852;SDS011;9052;53.494;14.376;2023-09-19T09:17:42;5.73;;;3.13;;
17852;SDS011;9052;53.494;14.376;2023-09-19T09:20:10;5.77;;;2.03;;
17852;SDS011;9052;53.494;14.376;2023-09-19T09:22:38;8.60;;;2.40;;
17852;SDS011;9052;53.494;14.376;2023-09-19T09:25:09;6.70;;;2.30;;
17852;SDS011;9052;53.494;14.376;2023-09-19T09:27:37;9.87;;;1.83;;
17852;SDS011;9052;53.494;14.376;2023-09-19T09:30:07;6.30;;;2.40;;
17852;SDS011;9052;53.494;14.376;2023-09-19T09:32:38;3.13;;;1.90;;
17852;SDS011;9052;53.494;14.376;2023-09-19T09:35:07;3.80;;;2.10;;
17852;SDS011;9052;53.494;14.376;2023-09-19T09:37:39;4.80;;;2.10;;
17852;SDS011;9052;53.494;14.376;2023-09-19T09:40:12;5.20;;;2.67;;
17852;SDS011;9052;53.494;14.376;2023-09-19T09:43:04;8.70;;;2.67;;
17852;SDS011;9052;53.494;14.376;2023-09-19T09:46:04;4.27;;;1.93;;
17852;SDS011;9052;53.494;14.376;2023-09-19T09:48:36;14.40;;;2.50;;
17852;SDS011;9052;53.494;14.376;2023-09-19T09:51:04;8.03;;;2.30;;
17852;SDS011;9052;53.494;14.376;2023-09-19T09:53:33;3.37;;;2.50;;
17852;SDS011;9052;53.494;14.376;2023-09-19T09:56:02;9.97;;;2.40;;
17852;SDS011;9052;53.494;14.376;2023-09-19T09:58:32;9.70;;;2.37;;
17852;SDS011;9052;53.494;14.376;2023-09-19T10:01:01;4.30;;;1.90;;
17852;SDS011;9052;53.494;14.376;2023-09-19T10:03:34;3.30;;;1.90;;
17852;SDS011;9052;53.494;14.376;2023-09-19T10:06:05;2.77;;;1.97;;
17852;SDS011;9052;53.494;14.376;2023-09-19T10:09:01;5.60;;;2.00;;
17852;SDS011;9052;53.494;14.376;2023-09-19T10:11:36;8.17;;;2.30;;
17852;SDS011;9052;53.494;14.376;2023-09-19T10:14:09;7.40;;;2.00;;
17852;SDS011;9052;53.494;14.376;2023-09-19T10:16:39;7.93;;;1.77;;
17852;SDS011;9052;53.494;14.376;2023-09-19T10:19:07;3.27;;;1.70;;
17852;SDS011;9052;53.494;14.376;2023-09-19T10:21:34;5.13;;;2.30;;
17852;SDS011;9052;53.494;14.376;2023-09-19T10:24:04;8.90;;;2.53;;
17852;SDS011;9052;53.494;14.376;2023-09-19T10:26:34;6.87;;;2.10;;
17852;SDS011;9052;53.494;14.376;2023-09-19T10:29:01;7.33;;;2.10;;
17852;SDS011;9052;53.494;14.376;2023-09-19T10:31:30;3.10;;;1.93;;
17852;SDS011;9052;53.494;14.376;2023-09-19T10:34:00;7.50;;;2.17;;
17852;SDS011;9052;53.494;14.376;2023-09-19T10:36:29;9.63;;;2.47;;
17852;SDS011;9052;53.494;14.376;2023-09-19T10:38:59;3.30;;;1.43;;
17852;SDS011;9052;53.494;14.376;2023-09-19T10:41:27;3.70;;;2.10;;
17852;SDS011;9052;53.494;14.376;2023-09-19T10:43:55;4.13;;;1.93;;
17852;SDS011;9052;53.494;14.376;2023-09-19T10:46:24;12.47;;;2.40;;
17852;SDS011;9052;53.494;14.376;2023-09-19T10:48:53;5.87;;;2.00;;
17852;SDS011;9052;53.494;14.376;2023-09-19T10:51:23;4.37;;;2.77;;
17852;SDS011;9052;53.494;14.376;2023-09-19T10:53:54;8.40;;;2.23;;
17852;SDS011;9052;53.494;14.376;2023-09-19T10:56:25;5.13;;;2.00;;
17852;SDS011;9052;53.494;14.376;2023-09-19T10:59:04;9.07;;;2.40;;
17852;SDS011;9052;53.494;14.376;2023-09-19T11:01:42;5.67;;;2.07;;
17852;SDS011;9052;53.494;14.376;2023-09-19T11:04:26;4.10;;;2.10;;
17852;SDS011;9052;53.494;14.376;2023-09-19T11:07:04;5.00;;;2.20;;
17852;SDS011;9052;53.494;14.376;2023-09-19T11:09:44;12.67;;;2.10;;
17852;SDS011;9052;53.494;14.376;2023-09-19T11:12:12;5.50;;;2.23;;
17852;SDS011;9052;53.494;14.376;2023-09-19T11:27:14;5.57;;;2.30;;
17852;SDS011;9052;53.494;14.376;2023-09-19T11:29:56;3.40;;;1.70;;
17852;SDS011;9052;53.494;14.376;2023-09-19T11:33:15;5.07;;;2.07;;
17852;SDS011;9052;53.494;14.376;2023-09-19T11:36:01;13.33;;;2.27;;
17852;SDS011;9052;53.494;14.376;2023-09-19T11:41:36;5.53;;;2.13;;
17852;SDS011;9052;53.494;14.376;2023-09-19T11:47:00;2.60;;;1.63;;
17852;SDS011;9052;53.494;14.376;2023-09-19T11:49:29;10.40;;;1.57;;
17852;SDS011;9052;53.494;14.376;2023-09-19T11:51:58;3.30;;;1.97;;
17852;SDS011;9052;53.494;14.376;2023-09-19T11:54:28;17.80;;;2.20;;
17852;SDS011;9052;53.494;14.376;2023-09-19T11:56:56;4.37;;;1.80;;
17852;SDS011;9052;53.494;14.376;2023-09-19T11:59:24;5.43;;;2.20;;
17852;SDS011;9052;53.494;14.376;2023-09-19T12:01:53;6.20;;;2.07;;
17852;SDS011;9052;53.494;14.376;2023-09-19T12:04:33;2.80;;;1.60;;
17852;SDS011;9052;53.494;14.376;2023-09-19T12:07:03;8.70;;;2.90;;
17852;SDS011;9052;53.494;14.376;2023-09-19T12:09:32;8.90;;;2.13;;
17852;SDS011;9052;53.494;14.376;2023-09-19T12:11:59;1.70;;;1.53;;
17852;SDS011;9052;53.494;14.376;2023-09-19T12:14:26;24.23;;;2.33;;
17852;SDS011;9052;53.494;14.376;2023-09-19T12:16:54;5.20;;;2.73;;
17852;SDS011;9052;53.494;14.376;2023-09-19T12:19:22;7.30;;;1.67;;
17852;SDS011;9052;53.494;14.376;2023-09-19T12:21:56;5.37;;;2.10;;
17852;SDS011;9052;53.494;14.376;2023-09-19T12:24:24;5.10;;;2.17;;
17852;SDS011;9052;53.494;14.376;2023-09-19T12:26:59;6.13;;;2.00;;
17852;SDS011;9052;53.494;14.376;2023-09-19T12:29:27;5.27;;;2.10;;
17852;SDS011;9052;53.494;14.376;2023-09-19T12:31:56;4.77;;;2.30;;
17852;SDS011;9052;53.494;14.376;2023-09-19T12:34:24;5.57;;;2.60;;
17852;SDS011;9052;53.494;14.376;2023-09-19T12:37:08;7.70;;;2.33;;
17852;SDS011;9052;53.494;14.376;2023-09-19T12:39:46;6.13;;;2.13;;
17852;SDS011;9052;53.494;14.376;2023-09-19T12:42:18;2.90;;;2.23;;
17852;SDS011;9052;53.494;14.376;2023-09-19T12:44:47;8.83;;;2.10;;
17852;SDS011;9052;53.494;14.376;2023-09-19T12:47:17;8.53;;;2.07;;
17852;SDS011;9052;53.494;14.376;2023-09-19T12:52:38;7.53;;;2.77;;
17852;SDS011;9052;53.494;14.376;2023-09-19T12:55:06;17.33;;;2.83;;
17852;SDS011;9052;53.494;14.376;2023-09-19T12:57:35;14.17;;;2.20;;
17852;SDS011;9052;53.494;14.376;2023-09-19T13:00:04;3.80;;;1.90;;
17852;SDS011;9052;53.494;14.376;2023-09-19T13:02:36;11.17;;;2.10;;
17852;SDS011;9052;53.494;14.376;2023-09-19T13:05:03;4.70;;;2.30;;
17852;SDS011;9052;53.494;14.376;2023-09-19T13:07:41;5.63;;;2.67;;
17852;SDS011;9052;53.494;14.376;2023-09-19T13:10:12;4.53;;;2.10;;
17852;SDS011;9052;53.494;14.376;2023-09-19T13:12:42;5.63;;;2.40;;
17852;SDS011;9052;53.494;14.376;2023-09-19T13:15:12;21.07;;;2.70;;
17852;SDS011;9052;53.494;14.376;2023-09-19T13:17:45;11.10;;;2.50;;
17852;SDS011;9052;53.494;14.376;2023-09-19T13:20:21;7.87;;;2.80;;
17852;SDS011;9052;53.494;14.376;2023-09-19T13:22:52;5.93;;;2.63;;
17852;SDS011;9052;53.494;14.376;2023-09-19T13:25:23;6.73;;;2.53;;
17852;SDS011;9052;53.494;14.376;2023-09-19T13:27:53;8.43;;;2.90;;
17852;SDS011;9052;53.494;14.376;2023-09-19T13:30:22;8.97;;;2.90;;
17852;SDS011;9052;53.494;14.376;2023-09-19T13:32:50;12.20;;;2.70;;
17852;SDS011;9052;53.494;14.376;2023-09-19T13:35:18;2.80;;;1.77;;
17852;SDS011;9052;53.494;14.376;2023-09-19T13:37:45;8.20;;;2.40;;
17852;SDS011;9052;53.494;14.376;2023-09-19T13:40:16;15.53;;;2.80;;
17852;SDS011;9052;53.494;14.376;2023-09-19T13:42:43;4.47;;;2.53;;
17852;SDS011;9052;53.494;14.376;2023-09-19T13:45:12;10.33;;;2.50;;
17852;SDS011;9052;53.494;14.376;2023-09-19T13:47:42;10.20;;;2.80;;
17852;SDS011;9052;53.494;14.376;2023-09-19T13:50:12;8.20;;;2.60;;
17852;SDS011;9052;53.494;14.376;2023-09-19T13:52:39;13.93;;;3.17;;
17852;SDS011;9052;53.494;14.376;2023-09-19T13:55:06;9.33;;;2.50;;
17852;SDS011;9052;53.494;14.376;2023-09-19T13:57:33;3.43;;;1.50;;
17852;SDS011;9052;53.494;14.376;2023-09-19T14:00:00;7.80;;;2.20;;
17852;SDS011;9052;53.494;14.376;2023-09-19T14:02:29;4.20;;;2.13;;
17852;SDS011;9052;53.494;14.376;2023-09-19T14:04:57;7.37;;;2.70;;
17852;SDS011;9052;53.494;14.376;2023-09-19T14:07:23;6.00;;;2.30;;
17852;SDS011;9052;53.494;14.376;2023-09-19T14:09:50;5.67;;;2.50;;
17852;SDS011;9052;53.494;14.376;2023-09-19T14:12:17;11.43;;;2.20;;
17852;SDS011;9052;53.494;14.376;2023-09-19T14:14:44;6.73;;;1.90;;
17852;SDS011;9052;53.494;14.376;2023-09-19T14:17:11;9.93;;;3.80;;
17852;SDS011;9052;53.494;14.376;2023-09-19T14:19:41;12.13;;;2.30;;
17852;SDS011;9052;53.494;14.376;2023-09-19T14:22:10;7.13;;;2.77;;
17852;SDS011;9052;53.494;14.376;2023-09-19T14:24:36;6.03;;;2.53;;
17852;SDS011;9052;53.494;14.376;2023-09-19T14:27:04;6.33;;;2.23;;
17852;SDS011;9052;53.494;14.376;2023-09-19T14:29:35;4.20;;;2.13;;
17852;SDS011;9052;53.494;14.376;2023-09-19T14:32:02;7.80;;;2.57;;
17852;SDS011;9052;53.494;14.376;2023-09-19T14:34:30;3.40;;;2.47;;
17852;SDS011;9052;53.494;14.376;2023-09-19T14:36:58;6.30;;;2.40;;
17852;SDS011;9052;53.494;14.376;2023-09-19T14:39:24;2.83;;;2.17;;
17852;SDS011;9052;53.494;14.376;2023-09-19T14:41:52;7.53;;;2.33;;
17852;SDS011;9052;53.494;14.376;2023-09-19T14:44:19;8.83;;;2.90;;
17852;SDS011;9052;53.494;14.376;2023-09-19T14:46:45;4.57;;;1.97;;
17852;SDS011;9052;53.494;14.376;2023-09-19T14:49:13;10.90;;;2.70;;
17852;SDS011;9052;53.494;14.376;2023-09-19T14:51:42;8.07;;;2.30;;
17852;SDS011;9052;53.494;14.376;2023-09-19T14:54:11;25.03;;;2.73;;
17852;SDS011;9052;53.494;14.376;2023-09-19T14:56:37;4.53;;;2.00;;
17852;SDS011;9052;53.494;14.376;2023-09-19T14:59:05;25.23;;;2.53;;
17852;SDS011;9052;53.494;14.376;2023-09-19T15:01:32;9.07;;;2.57;;
17852;SDS011;9052;53.494;14.376;2023-09-19T15:03:58;18.93;;;2.40;;
17852;SDS011;9052;53.494;14.376;2023-09-19T15:06:27;11.67;;;2.00;;
17852;SDS011;9052;53.494;14.376;2023-09-19T15:08:55;15.97;;;2.63;;
17852;SDS011;9052;53.494;14.376;2023-09-19T15:11:24;5.30;;;2.23;;
17852;SDS011;9052;53.494;14.376;2023-09-19T15:13:52;9.27;;;1.90;;
17852;SDS011;9052;53.494;14.376;2023-09-19T15:16:19;5.77;;;2.00;;
17852;SDS011;9052;53.494;14.376;2023-09-19T15:18:46;3.07;;;1.83;;